createdAt,value
2023-02-05T00:01:25.237Z,65.96
2023-02-05T00:03:51.888Z,61.50
2023-02-05T00:06:18.704Z,66.24
2023-02-05T00:08:45.380Z,67.95
2023-02-05T00:11:12.310Z,73.04
2023-02-05T00:13:40.756Z,66.20
2023-02-05T00:16:13.687Z,69.07
2023-02-05T00:18:40.423Z,69.45
2023-02-05T00:21:07.990Z,74.43
2023-02-05T00:23:35.303Z,71.40
2023-02-05T00:26:02.832Z,74.91
2023-02-05T00:28:32.854Z,68.92
2023-02-05T00:31:00.634Z,72.28
2023-02-05T00:33:27.502Z,72.71
2023-02-05T00:35:54.252Z,73.93
2023-02-05T00:38:20.948Z,76.68
2023-02-05T00:43:27.226Z,80.02
2023-02-05T00:45:53.957Z,73.72
2023-02-05T00:48:20.683Z,70.48
2023-02-05T00:50:51.387Z,75.24
2023-02-05T00:56:58.319Z,79.13
2023-02-05T00:59:25.018Z,79.71
2023-02-05T01:01:51.798Z,80.58
2023-02-05T01:04:18.509Z,83.69
2023-02-05T01:06:45.243Z,78.13
2023-02-05T01:09:11.882Z,80.18
2023-02-05T01:11:38.524Z,86.38
2023-02-05T01:14:05.143Z,77.28
2023-02-05T01:16:31.850Z,82.22
2023-02-05T01:18:59.062Z,76.23
2023-02-05T01:21:25.715Z,78.30
2023-02-05T01:23:52.475Z,75.85
2023-02-05T01:26:19.119Z,76.27
2023-02-05T01:28:58.947Z,78.83
2023-02-05T01:31:28.225Z,78.17
2023-02-05T01:33:55.273Z,79.75
2023-02-05T01:36:21.974Z,81.03
2023-02-05T01:38:49.012Z,76.59
2023-02-05T01:41:16.024Z,77.53
2023-02-05T01:43:42.657Z,71.87
2023-02-05T01:46:37.122Z,75.31
2023-02-05T01:49:05.987Z,78.23
2023-02-05T01:51:35.875Z,80.37
2023-02-05T01:54:02.793Z,82.25
2023-02-05T01:56:38.293Z,80.86
2023-02-05T01:59:12.122Z,82.84
2023-02-05T02:01:41.148Z,80.57
2023-02-05T02:04:08.776Z,80.61
2023-02-05T02:06:36.799Z,83.21
2023-02-05T02:09:06.518Z,81.99
2023-02-05T02:11:36.455Z,81.85
2023-02-05T02:14:06.980Z,75.23
2023-02-05T02:16:36.701Z,75.47
2023-02-05T02:19:11.064Z,74.62
2023-02-05T02:22:02.769Z,76.67
2023-02-05T02:24:54.185Z,80.53
2023-02-05T02:27:38.060Z,77.00
2023-02-05T02:30:14.288Z,72.91
2023-02-05T02:32:49.535Z,77.18
2023-02-05T02:35:23.242Z,77.89
2023-02-05T02:38:14.277Z,80.39
2023-02-05T02:41:00.782Z,71.86
2023-02-05T02:44:05.088Z,70.61
2023-02-05T02:46:42.660Z,78.33
2023-02-05T02:49:16.420Z,82.83
2023-02-05T02:51:44.286Z,80.59
2023-02-05T02:54:16.103Z,82.07
2023-02-05T02:56:44.749Z,88.89
2023-02-05T02:59:18.003Z,74.33
2023-02-05T03:01:53.758Z,71.69
2023-02-05T03:04:35.503Z,74.94
2023-02-05T03:07:13.665Z,76.41
2023-02-05T03:09:49.359Z,80.06
2023-02-05T03:12:16.260Z,80.18
2023-02-05T03:14:43.128Z,74.65
2023-02-05T03:17:09.808Z,73.44
2023-02-05T03:19:36.689Z,77.29
2023-02-05T03:22:06.364Z,79.09
2023-02-05T03:24:33.109Z,80.10
2023-02-05T03:26:59.812Z,80.00
2023-02-05T03:29:31.018Z,76.33
2023-02-05T03:35:19.569Z,71.26
2023-02-05T03:40:47.766Z,73.21
2023-02-05T03:43:21.553Z,77.93
2023-02-05T03:46:20.410Z,70.51
2023-02-05T03:48:52.822Z,77.79
2023-02-05T03:51:38.043Z,78.54
2023-02-05T03:54:08.224Z,75.30
2023-02-05T03:56:59.442Z,77.57
2023-02-05T03:59:27.794Z,82.88
2023-02-05T04:01:55.214Z,84.09
2023-02-05T04:04:22.135Z,81.90
2023-02-05T04:06:51.611Z,77.29
2023-02-05T04:09:18.221Z,76.31
2023-02-05T04:13:21.459Z,80.78
2023-02-05T04:15:49.577Z,82.81
2023-02-05T04:18:16.641Z,76.31
2023-02-05T04:20:43.940Z,68.37
2023-02-05T04:23:11.373Z,65.00
2023-02-05T04:25:39.218Z,63.07
2023-02-05T04:28:06.990Z,63.79
2023-02-05T04:30:33.976Z,72.82
2023-02-05T04:33:00.730Z,68.43
2023-02-05T04:35:27.444Z,61.98
2023-02-05T04:37:54.093Z,67.89
2023-02-05T04:40:20.720Z,69.27
2023-02-05T04:42:47.358Z,69.99
2023-02-05T04:45:14.051Z,75.94
2023-02-05T04:47:40.746Z,71.42
2023-02-05T04:50:07.828Z,69.24
2023-02-05T04:52:34.468Z,70.88
2023-02-05T04:55:01.123Z,73.14
2023-02-05T04:57:29.609Z,73.96
2023-02-05T04:59:56.248Z,70.33
2023-02-05T05:05:13.694Z,71.07
2023-02-05T05:07:40.410Z,69.75
2023-02-05T05:10:08.202Z,75.07
2023-02-05T05:12:36.019Z,75.07
2023-02-05T05:15:16.817Z,67.37
2023-02-05T05:17:43.412Z,71.32
2023-02-05T05:20:10.805Z,74.83
2023-02-05T05:22:37.523Z,76.52
2023-02-05T05:26:31.465Z,79.71
2023-02-05T05:28:58.270Z,80.49
2023-02-05T05:31:25.212Z,73.73
2023-02-05T05:33:52.226Z,70.11
2023-02-05T05:36:19.640Z,75.18
2023-02-05T05:38:46.338Z,77.11
2023-02-05T05:41:42.737Z,77.04
2023-02-05T05:44:10.060Z,79.76
2023-02-05T05:46:37.101Z,83.97
2023-02-05T05:49:04.452Z,85.29
2023-02-05T05:51:32.806Z,77.71
2023-02-05T05:55:46.859Z,82.49
2023-02-05T05:58:14.042Z,82.88
2023-02-05T06:00:41.446Z,85.17
2023-02-05T06:03:10.455Z,86.94
2023-02-05T06:05:37.192Z,88.38
2023-02-05T06:08:04.442Z,86.70
2023-02-05T06:10:32.996Z,88.16
2023-02-05T06:13:00.667Z,88.85
2023-02-05T06:15:27.304Z,91.89
2023-02-05T06:17:54.241Z,94.64
2023-02-05T06:20:20.948Z,92.46
2023-02-05T06:25:26.261Z,92.20
2023-02-05T06:27:52.989Z,92.72
2023-02-05T06:30:19.827Z,93.00
2023-02-05T06:32:46.465Z,93.70
2023-02-05T06:35:13.161Z,94.40
2023-02-05T06:37:47.036Z,93.18
2023-02-05T06:40:18.111Z,94.47
2023-02-05T06:43:57.213Z,95.07
2023-02-05T06:46:23.877Z,94.62
2023-02-05T06:48:50.468Z,95.56
2023-02-05T06:51:17.347Z,99.02
2023-02-05T06:53:43.956Z,98.57
2023-02-05T06:56:10.615Z,96.22
2023-02-05T06:58:37.311Z,95.93
2023-02-05T07:01:04.058Z,96.71
2023-02-05T07:03:30.692Z,97.18
2023-02-05T07:06:05.042Z,96.86
2023-02-05T07:08:31.876Z,97.83
2023-02-05T07:10:58.728Z,99.91
2023-02-05T07:13:25.746Z,90.56
2023-02-05T07:15:52.431Z,87.43
2023-02-05T07:18:19.066Z,85.27
2023-02-05T07:20:45.848Z,86.57
2023-02-05T07:23:12.532Z,84.33
2023-02-05T07:25:39.193Z,82.23
2023-02-05T07:28:07.457Z,82.30
2023-02-05T07:30:35.832Z,77.90
2023-02-05T07:33:03.713Z,77.31
2023-02-05T07:35:32.368Z,76.91
2023-02-05T07:37:59.498Z,80.38
2023-02-05T07:40:26.485Z,84.48
2023-02-05T07:45:32.559Z,85.31
2023-02-05T07:50:26.866Z,85.74
2023-02-05T07:55:40.983Z,84.03
2023-02-05T07:58:07.581Z,82.22
2023-02-05T08:01:25.347Z,83.83
2023-02-05T08:03:52.025Z,84.38
2023-02-05T08:08:57.482Z,83.08
2023-02-05T08:11:24.135Z,82.62
2023-02-05T08:16:30.507Z,82.61
2023-02-05T08:18:57.216Z,82.57
2023-02-05T08:21:23.952Z,81.18
2023-02-05T08:23:50.814Z,82.87
2023-02-05T08:26:18.546Z,83.49
2023-02-05T08:28:46.084Z,83.60
2023-02-05T08:31:15.886Z,81.79
2023-02-05T08:33:42.521Z,83.33
2023-02-05T08:36:09.832Z,82.04
2023-02-05T08:38:36.865Z,80.23
2023-02-05T08:41:14.426Z,80.84
2023-02-05T08:43:46.064Z,79.38
2023-02-05T08:46:15.250Z,81.05
2023-02-05T08:51:23.123Z,80.07
2023-02-05T08:53:50.020Z,81.22
2023-02-05T08:56:19.875Z,81.32
2023-02-05T08:58:46.842Z,79.03
2023-02-05T09:01:17.147Z,81.30
2023-02-05T09:03:44.844Z,80.20
2023-02-05T09:06:13.988Z,78.79
2023-02-05T09:08:40.852Z,80.14
2023-02-05T09:11:08.014Z,78.76
2023-02-05T09:13:35.292Z,78.94
2023-02-05T09:16:01.979Z,80.27
2023-02-05T09:18:28.660Z,78.86
2023-02-05T09:20:55.364Z,78.96
2023-02-05T09:23:22.138Z,77.02
2023-02-05T09:25:49.313Z,78.43
2023-02-05T09:30:55.958Z,82.97
2023-02-05T09:33:22.680Z,80.77
2023-02-05T09:35:49.344Z,81.81
2023-02-05T09:38:17.915Z,78.30
2023-02-05T09:40:59.573Z,80.53
2023-02-05T09:43:38.339Z,79.27
2023-02-05T09:46:42.124Z,76.88
2023-02-05T09:49:19.966Z,78.15
2023-02-05T09:51:53.125Z,77.46
2023-02-05T09:54:36.217Z,79.31
2023-02-05T09:57:10.717Z,77.66
2023-02-05T09:59:39.943Z,77.60
2023-02-05T10:02:28.506Z,76.59
2023-02-05T10:05:16.534Z,76.44
2023-02-05T10:07:55.052Z,75.12
2023-02-05T10:10:31.879Z,76.60
2023-02-05T10:13:25.558Z,76.64
2023-02-05T10:16:23.442Z,77.83
2023-02-05T10:19:17.787Z,78.79
2023-02-05T10:22:23.098Z,77.45
2023-02-05T10:25:01.818Z,76.80
2023-02-05T10:27:43.347Z,75.47
2023-02-05T10:30:30.732Z,73.74
2023-02-05T10:33:07.559Z,74.24
2023-02-05T10:35:49.886Z,74.82
2023-02-05T10:38:23.174Z,73.89
2023-02-05T10:40:53.202Z,76.68
2023-02-05T10:43:26.699Z,76.06
2023-02-05T10:45:55.236Z,75.97
2023-02-05T10:48:36.900Z,75.54
2023-02-05T10:51:15.090Z,71.41
2023-02-05T10:53:42.306Z,71.60
2023-02-05T10:56:14.769Z,71.50
2023-02-05T10:59:02.647Z,68.57
2023-02-05T11:01:37.090Z,70.66
2023-02-05T11:04:07.538Z,71.83
2023-02-05T11:06:45.921Z,70.02
2023-02-05T11:09:29.696Z,69.14
2023-02-05T11:11:58.041Z,71.26
2023-02-05T11:14:35.607Z,69.86
2023-02-05T11:17:19.304Z,67.50
2023-02-05T11:19:59.248Z,68.22
2023-02-05T11:22:31.240Z,65.69
2023-02-05T11:25:16.871Z,65.96
2023-02-05T11:27:56.120Z,66.64
2023-02-05T11:30:56.150Z,68.69
2023-02-05T11:33:22.239Z,66.37
2023-02-05T11:36:03.981Z,65.51
2023-02-05T11:38:44.811Z,67.19
2023-02-05T11:41:14.896Z,63.61
2023-02-05T11:43:52.746Z,62.25
2023-02-05T11:46:22.864Z,62.77
2023-02-05T11:49:00.968Z,64.23
2023-02-05T11:51:29.294Z,64.90
2023-02-05T11:53:59.167Z,63.39
2023-02-05T11:56:26.682Z,65.95
2023-02-05T11:59:01.772Z,63.61
2023-02-05T12:01:33.872Z,66.26
2023-02-05T12:04:06.764Z,64.36
2023-02-05T12:06:43.761Z,64.13
2023-02-05T12:09:16.561Z,64.34
2023-02-05T12:12:03.514Z,64.36
2023-02-05T12:14:56.112Z,66.90
2023-02-05T12:17:43.051Z,64.61
2023-02-05T12:20:09.911Z,63.38
2023-02-05T12:23:14.750Z,66.38
2023-02-05T12:25:58.696Z,65.78
2023-02-05T12:28:47.150Z,66.23
2023-02-05T12:31:20.711Z,63.33
2023-02-05T12:34:13.141Z,63.65
2023-02-05T12:36:49.259Z,66.39
2023-02-05T12:39:59.826Z,65.10
2023-02-05T12:42:30.755Z,63.32
2023-02-05T12:45:19.227Z,64.75
2023-02-05T12:47:50.904Z,65.79
2023-02-05T12:50:20.322Z,68.66
2023-02-05T12:53:05.688Z,69.49
2023-02-05T12:55:48.266Z,64.38
2023-02-05T12:58:17.434Z,66.57
2023-02-05T13:00:59.947Z,68.53
2023-02-05T13:03:38.834Z,71.00
2023-02-05T13:06:18.763Z,70.92
2023-02-05T13:09:13.560Z,73.17
2023-02-05T13:12:05.121Z,74.37
2023-02-05T13:14:41.518Z,69.13
2023-02-05T13:17:34.536Z,70.88
2023-02-05T13:20:04.439Z,67.69
2023-02-05T13:22:54.716Z,56.10
2023-02-05T13:26:02.680Z,65.94
2023-02-05T13:28:40.977Z,59.68
2023-02-05T13:34:04.510Z,52.22
2023-02-05T13:50:08.614Z,53.80
2023-02-05T13:52:53.409Z,62.67
2023-02-05T13:55:53.861Z,54.56
2023-02-05T13:58:29.214Z,58.28
2023-02-05T14:01:05.916Z,56.84
2023-02-05T14:03:39.435Z,61.00
2023-02-05T14:06:17.171Z,56.91
2023-02-05T14:08:44.510Z,51.24
2023-02-05T14:11:11.665Z,58.12
2023-02-05T14:13:38.604Z,56.08
2023-02-05T14:16:23.971Z,56.46
2023-02-05T14:19:11.007Z,52.58
2023-02-05T14:21:46.580Z,58.07
2023-02-05T14:24:27.552Z,57.43
2023-02-05T14:27:00.427Z,62.29
2023-02-05T14:29:45.310Z,53.96
2023-02-05T14:32:33.287Z,54.54
2023-02-05T14:35:00.979Z,55.91
2023-02-05T14:37:49.785Z,63.04
2023-02-05T14:40:31.607Z,64.79
2023-02-05T14:43:14.510Z,66.94
2023-02-05T14:45:47.888Z,68.71
2023-02-05T14:48:37.417Z,68.07
2023-02-05T14:51:25.909Z,67.51
2023-02-05T14:53:57.913Z,61.07
2023-02-05T14:56:33.987Z,62.43
2023-02-05T14:59:17.853Z,66.51
2023-02-05T15:01:46.514Z,64.84
2023-02-05T15:04:26.727Z,57.82
2023-02-05T15:06:54.854Z,62.82
2023-02-05T15:09:40.445Z,68.92
2023-02-05T15:12:34.330Z,62.68
2023-02-05T15:15:27.834Z,64.84
2023-02-05T15:17:58.225Z,67.64
2023-02-05T15:23:19.595Z,70.94
2023-02-05T15:25:55.289Z,70.07
2023-02-05T15:28:32.555Z,73.72
2023-02-05T15:31:01.937Z,72.67
2023-02-05T15:33:38.854Z,71.37
2023-02-05T15:36:15.690Z,71.88
2023-02-05T15:51:46.006Z,73.72
2023-02-05T15:54:19.709Z,73.15
2023-02-05T15:56:50.903Z,72.45
2023-02-05T15:59:24.704Z,74.25
2023-02-05T16:02:02.015Z,76.95
2023-02-05T16:04:32.252Z,76.31
2023-02-05T16:07:00.118Z,72.97
2023-02-05T16:09:29.510Z,75.53
2023-02-05T16:11:56.289Z,77.82
2023-02-05T16:14:25.540Z,77.12
2023-02-05T16:17:10.818Z,78.82
2023-02-05T16:19:46.693Z,78.14
2023-02-05T16:25:57.154Z,80.49
2023-02-05T16:28:32.608Z,80.32
2023-02-05T16:31:00.952Z,80.89
2023-02-05T16:33:42.011Z,80.24
2023-02-05T16:37:42.776Z,81.00
2023-02-05T16:40:12.246Z,80.70
2023-02-05T16:42:46.235Z,81.55
2023-02-05T16:45:12.894Z,80.85
2023-02-05T16:47:39.712Z,82.06
2023-02-05T16:50:41.242Z,81.45
2023-02-05T17:00:39.036Z,83.37
2023-02-05T17:03:16.453Z,84.21
2023-02-05T17:17:58.231Z,85.29
2023-02-05T17:20:28.712Z,85.08
2023-02-05T17:22:58.660Z,85.85
2023-02-05T17:35:35.371Z,86.36
2023-02-05T17:40:42.118Z,86.34
2023-02-05T17:43:08.840Z,86.39
2023-02-05T17:45:39.528Z,87.64
2023-02-05T17:48:10.142Z,88.00
2023-02-05T17:53:03.209Z,86.87
2023-02-05T17:55:30.631Z,87.26
2023-02-05T17:57:57.256Z,88.54
2023-02-05T18:00:27.221Z,87.55
2023-02-05T18:02:54.556Z,86.87
2023-02-05T18:05:23.200Z,86.22
2023-02-05T18:10:35.050Z,86.90
2023-02-05T18:14:25.335Z,90.06
2023-02-05T18:19:30.535Z,85.72
2023-02-05T18:21:57.228Z,86.59
2023-02-05T18:24:24.028Z,87.71
2023-02-05T18:26:52.962Z,87.25
2023-02-05T18:29:21.636Z,86.57
2023-02-05T18:31:48.853Z,85.78
2023-02-05T18:34:15.683Z,84.50
2023-02-05T18:36:42.357Z,85.31
2023-02-05T18:39:09.886Z,86.48
2023-02-05T18:41:38.246Z,86.85
2023-02-05T18:45:30.839Z,86.17
2023-02-05T18:50:27.922Z,89.71
2023-02-05T18:55:35.575Z,89.58
2023-02-05T18:58:03.644Z,91.01
2023-02-05T19:00:30.495Z,90.87
2023-02-05T19:02:57.529Z,90.26
2023-02-05T19:05:24.257Z,89.87
2023-02-05T19:07:50.902Z,89.76
2023-02-05T19:10:18.391Z,90.04
2023-02-05T19:12:45.086Z,91.00
2023-02-05T19:15:11.693Z,90.46
2023-02-05T19:17:38.321Z,90.31
2023-02-05T19:20:06.020Z,90.65
2023-02-05T19:22:32.677Z,90.78
2023-02-05T19:24:59.392Z,90.89
2023-02-05T19:27:26.009Z,91.30
2023-02-05T19:29:52.679Z,91.56
2023-02-05T19:32:19.338Z,91.33
2023-02-05T19:34:46.812Z,91.61
2023-02-05T19:37:13.487Z,91.64
2023-02-05T19:39:40.213Z,92.11
2023-02-05T19:42:07.257Z,91.44
2023-02-05T19:44:34.054Z,92.34
2023-02-05T19:47:00.717Z,92.53
2023-02-05T19:49:27.492Z,92.83
2023-02-05T19:54:30.564Z,92.60
2023-02-05T19:56:57.494Z,92.01
2023-02-05T19:59:24.701Z,91.25
2023-02-05T20:01:51.349Z,91.53
2023-02-05T20:04:22.401Z,92.30
2023-02-05T20:09:28.650Z,89.97
2023-02-05T20:12:43.614Z,90.21
2023-02-05T20:17:51.159Z,90.99
2023-02-05T20:20:32.648Z,91.54
2023-02-05T20:23:00.123Z,91.50
2023-02-05T20:25:26.818Z,91.46
2023-02-05T20:27:53.484Z,90.96
2023-02-05T20:30:38.845Z,88.28
2023-02-05T20:33:05.564Z,89.20
2023-02-05T20:35:35.320Z,89.60
2023-02-05T20:38:01.958Z,90.09
2023-02-05T20:40:28.604Z,89.88
2023-02-05T20:42:55.242Z,90.52
2023-02-05T20:45:21.876Z,90.97
2023-02-05T20:47:48.577Z,91.88
2023-02-05T20:50:15.343Z,92.18
2023-02-05T20:52:42.031Z,92.60
2023-02-05T20:55:08.661Z,93.42
2023-02-05T20:57:35.416Z,93.80
2023-02-05T21:00:02.093Z,93.86
2023-02-05T21:07:29.792Z,95.71
2023-02-05T21:09:59.570Z,96.07
2023-02-05T21:12:31.085Z,96.34
2023-02-05T21:14:58.123Z,95.98
2023-02-05T21:17:24.742Z,95.73
2023-02-05T21:19:51.361Z,95.57
2023-02-05T21:22:18.042Z,95.95
2023-02-05T21:24:44.719Z,95.44
2023-02-05T21:27:11.392Z,95.81
2023-02-05T21:29:38.043Z,95.99
2023-02-05T21:32:04.909Z,96.56
2023-02-05T21:34:31.556Z,96.14
2023-02-05T21:36:58.194Z,95.69
2023-02-05T21:39:25.787Z,96.03
2023-02-05T21:41:53.418Z,96.97
2023-02-05T21:44:20.332Z,97.96
2023-02-05T21:46:47.107Z,98.06
2023-02-05T21:49:13.729Z,98.44
2023-02-05T21:51:42.495Z,98.56
2023-02-05T21:54:10.906Z,98.68
2023-02-05T21:56:39.888Z,99.10
2023-02-05T21:59:06.750Z,99.20
2023-02-05T22:01:35.758Z,99.11
2023-02-05T22:04:05.096Z,98.06
2023-02-05T22:06:33.676Z,97.62
2023-02-05T22:09:01.566Z,97.71
2023-02-05T22:11:28.714Z,98.21
2023-02-05T22:13:56.359Z,99.04
2023-02-05T22:16:26.194Z,99.19
2023-02-05T22:18:53.321Z,99.55
2023-02-05T22:21:21.383Z,100.00
2023-02-05T22:23:50.074Z,99.69
2023-02-05T22:26:18.519Z,100.00
2023-02-05T22:28:45.759Z,100.00
2023-02-05T22:31:14.802Z,99.99
2023-02-05T22:33:43.600Z,99.89
2023-02-05T22:36:12.021Z,99.65
2023-02-05T22:38:40.702Z,100.00
2023-02-05T22:41:15.846Z,100.00
2023-02-05T22:43:42.747Z,99.91
2023-02-05T22:46:30.964Z,99.74
2023-02-05T22:51:40.412Z,99.81
2023-02-05T22:54:10.034Z,100.00
2023-02-05T22:58:45.295Z,99.45
2023-02-05T23:01:13.463Z,100.00
2023-02-05T23:03:40.209Z,100.00
2023-02-05T23:06:15.833Z,100.00
2023-02-05T23:08:42.690Z,100.00
2023-02-05T23:11:12.999Z,100.00
2023-02-05T23:13:40.726Z,100.00
2023-02-05T23:16:08.591Z,100.00
2023-02-05T23:18:35.907Z,100.00
2023-02-05T23:21:07.286Z,100.00
2023-02-05T23:23:33.914Z,100.00
2023-02-05T23:26:08.225Z,100.00
2023-02-05T23:28:35.799Z,100.00
2023-02-05T23:31:03.064Z,100.00
2023-02-05T23:33:29.867Z,100.00
2023-02-05T23:35:56.591Z,100.00
2023-02-05T23:38:25.173Z,100.00
2023-02-05T23:40:53.224Z,100.00
2023-02-05T23:43:21.655Z,100.00
2023-02-05T23:45:49.851Z,100.00
2023-02-05T23:48:16.791Z,100.00
2023-02-05T23:50:43.862Z,100.00
2023-02-05T23:53:11.442Z,100.00
2023-02-05T23:55:40.208Z,100.00
2023-02-05T23:58:07.866Z,100.00
